Time;durP1;ratioP1;P1;durP2;ratioP2;P2;SDS_P1;SDS_P2;PMS_P1;PMS_P2;Temp;Humidity;BMP_temperature;BMP_pressure;BME280_temperature;BME280_humidity;BME280_pressure;Samples;Min_cycle;Max_cycle;Signal;HPM_P1;HPM_P2
2022/10/03 00:02:38;;;;;;;0.20;0.20;;;;;;;12.93;97.62;97830.97;5021922;28;20126;-65
2022/10/03 00:05:28;;;;;;;0.10;0.10;;;;;;;12.96;97.57;97827.59;5024881;28;20103;-66
2022/10/03 00:08:07;;;;;;;0.20;0.20;;;;;;;12.95;97.99;97817.72;5038386;28;20048;-65
2022/10/03 00:10:44;;;;;;;0.20;0.20;;;;;;;12.96;98.59;97822.09;5004183;28;20042;-65
2022/10/03 00:13:20;;;;;;;0.10;0.10;;;;;;;12.97;98.86;97813.50;5028761;28;20056;-65
2022/10/03 00:15:52;;;;;;;0.20;0.20;;;;;;;12.98;99.02;97806.09;5044316;28;20095;-65
2022/10/03 00:18:33;;;;;;;0.10;0.10;;;;;;;12.95;99.15;97790.28;5044015;28;20123;-66
2022/10/03 00:21:36;;;;;;;0.10;0.10;;;;;;;12.85;99.41;97773.16;5043550;28;20656;-65
2022/10/03 00:24:16;;;;;;;0.20;0.20;;;;;;;12.98;99.64;97793.16;5042584;28;20659;-64
2022/10/03 00:26:51;;;;;;;0.10;0.10;;;;;;;12.99;99.99;97792.03;5043347;28;20096;-65
2022/10/03 00:29:35;;;;;;;0.13;0.13;;;;;;;12.99;100.00;97777.53;5039392;28;20068;-66
2022/10/03 00:32:11;;;;;;;0.20;0.20;;;;;;;12.98;100.00;97768.47;5035297;28;20053;-65
2022/10/03 00:34:57;;;;;;;0.10;0.10;;;;;;;13.01;100.00;97773.28;5022530;28;20041;-62
2022/10/03 00:37:29;;;;;;;0.20;0.20;;;;;;;13.01;100.00;97773.28;5022001;28;20061;-64
2022/10/03 00:40:28;;;;;;;0.10;0.10;;;;;;;13.02;100.00;97760.38;5043291;28;20045;-64
2022/10/03 00:43:45;;;;;;;0.20;0.20;;;;;;;13.03;100.00;97760.06;5044519;28;20049;-65
2022/10/03 00:46:43;;;;;;;0.20;0.20;;;;;;;13.05;100.00;97757.75;5016461;28;20677;-65
2022/10/03 00:49:41;;;;;;;0.10;0.10;;;;;;;13.04;100.00;97760.84;5000059;28;20065;-66
2022/10/03 00:52:35;;;;;;;0.20;0.20;;;;;;;13.04;100.00;97764.41;5035951;28;20076;-65
2022/10/03 00:55:15;;;;;;;0.10;0.10;;;;;;;13.07;100.00;97749.19;5044351;28;20432;-65
2022/10/03 00:58:00;;;;;;;0.20;0.20;;;;;;;13.11;100.00;97752.84;5044451;28;20048;-65
2022/10/03 01:00:30;;;;;;;0.20;0.20;;;;;;;13.12;100.00;97748.97;5042820;28;20528;-69
2022/10/03 01:03:32;;;;;;;0.10;0.10;;;;;;;13.15;100.00;97751.03;5040151;28;20103;-64
2022/10/03 01:06:08;;;;;;;0.17;0.17;;;;;;;13.19;100.00;97740.19;5025012;28;20045;-65
2022/10/03 01:08:53;;;;;;;0.20;0.20;;;;;;;13.23;100.00;97740.28;5026136;28;20056;-65
2022/10/03 01:11:35;;;;;;;0.20;0.20;;;;;;;13.29;100.00;97747.16;5042444;28;20053;-65
2022/10/03 01:14:16;;;;;;;0.15;0.15;;;;;;;13.30;100.00;97744.03;5025940;28;20100;-65
2022/10/03 01:16:57;;;;;;;0.20;0.20;;;;;;;13.32;100.00;97735.47;5022186;28;20045;-66
2022/10/03 01:19:42;;;;;;;0.10;0.10;;;;;;;13.34;100.00;97722.22;5025031;28;20045;-65
2022/10/03 01:22:33;;;;;;;0.13;0.13;;;;;;;13.34;100.00;97719.47;5022750;28;20050;-65
2022/10/03 01:25:10;;;;;;;0.20;0.20;;;;;;;13.37;100.00;97707.00;5021966;28;20053;-64
2022/10/03 01:30:41;;;;;;;0.20;0.20;;;;;;;13.37;100.00;97710.53;5032412;28;20053;-67
2022/10/03 01:33:12;;;;;;;0.20;0.20;;;;;;;13.39;100.00;97693.72;5020558;28;20045;-66
2022/10/03 01:35:52;;;;;;;0.20;0.20;;;;;;;13.40;100.00;97690.63;5023070;28;20489;-66
2022/10/03 01:38:26;;;;;;;0.10;0.10;;;;;;;13.43;100.00;97683.66;5021444;28;20049;-66
2022/10/03 01:41:01;;;;;;;0.20;0.20;;;;;;;13.43;100.00;97683.66;5004114;28;20049;-65
2022/10/03 01:43:34;;;;;;;0.20;0.20;;;;;;;13.44;100.00;97688.84;5022059;28;20137;-65
2022/10/03 01:46:11;;;;;;;0.20;0.20;;;;;;;13.42;100.00;97674.59;5022526;28;20383;-65
2022/10/03 01:48:47;;;;;;;0.20;0.20;;;;;;;13.46;100.00;97678.31;5018562;28;20057;-65
2022/10/03 01:51:18;;;;;;;0.20;0.20;;;;;;;13.49;100.00;97670.53;5020919;28;20041;-68
2022/10/03 01:54:00;;;;;;;0.10;0.10;;;;;;;13.49;100.00;97674.06;5022200;28;20508;-68
2022/10/03 01:56:33;;;;;;;0.20;0.20;;;;;;;13.50;100.00;97669.38;5031404;28;20041;-67
2022/10/03 01:59:05;;;;;;;0.20;0.20;;;;;;;13.53;100.00;97669.50;5041531;28;20294;-67
2022/10/03 02:01:46;;;;;;;0.20;0.20;;;;;;;13.43;100.00;97648.81;5041938;28;20133;-67
2022/10/03 02:04:20;;;;;;;0.20;0.20;;;;;;;13.55;100.00;97644.41;5040134;28;20049;-66
2022/10/03 02:06:57;;;;;;;0.10;0.10;;;;;;;13.56;100.00;97652.31;5038446;28;20041;-68
2022/10/03 02:09:29;;;;;;;0.20;0.20;;;;;;;13.58;100.00;97651.97;5037806;28;20049;-67
2022/10/03 02:12:08;;;;;;;0.20;0.20;;;;;;;13.60;100.00;97657.94;5039591;28;20516;-67
2022/10/03 02:14:46;;;;;;;0.20;0.20;;;;;;;13.62;100.00;97655.63;5040679;28;20056;-67
2022/10/03 02:17:23;;;;;;;0.20;0.20;;;;;;;13.63;100.00;97643.50;5038009;28;20540;-67
2022/10/03 02:19:59;;;;;;;0.10;0.10;;;;;;;13.63;100.00;97643.50;5039368;28;20515;-65
2022/10/03 02:22:32;;;;;;;0.10;0.10;;;;;;;13.65;100.00;97632.97;5039598;28;20045;-66
2022/10/03 02:25:17;;;;;;;0.20;0.20;;;;;;;13.68;100.00;97637.75;5041593;28;20277;-66
2022/10/03 02:28:18;;;;;;;0.20;0.20;;;;;;;13.71;100.00;97639.00;5038264;28;20087;-68
2022/10/03 02:31:00;;;;;;;0.20;0.20;;;;;;;13.73;100.00;97639.47;5023998;28;20047;-67
2022/10/03 02:33:59;;;;;;;0.10;0.10;;;;;;;13.77;100.00;97631.34;5040237;28;20071;-64
2022/10/03 02:37:06;;;;;;;0.20;0.20;;;;;;;13.81;100.00;97623.97;5023302;28;20106;-65
2022/10/03 02:40:03;;;;;;;0.20;0.20;;;;;;;13.85;100.00;97635.88;5039590;28;20503;-65
2022/10/03 02:43:08;;;;;;;0.20;0.20;;;;;;;13.87;100.00;97642.63;5040641;28;20052;-64
2022/10/03 02:46:22;;;;;;;0.20;0.20;;;;;;;13.89;100.00;97621.09;5033575;28;20045;-64
2022/10/03 02:49:09;;;;;;;0.13;0.13;;;;;;;13.90;100.00;97622.69;4947142;28;20041;-63
2022/10/03 02:52:12;;;;;;;0.20;0.20;;;;;;;13.93;100.00;97628.63;4994684;28;20406;-65
2022/10/03 02:55:01;;;;;;;0.10;0.10;;;;;;;13.93;100.00;97626.69;4990185;28;20049;-65
2022/10/03 02:57:59;;;;;;;0.20;0.20;;;;;;;13.96;100.00;97622.41;4979945;28;20056;-64
2022/10/03 03:00:38;;;;;;;0.15;0.15;;;;;;;13.97;100.00;97624.81;4997824;28;20053;-66
2022/10/03 03:03:32;;;;;;;0.10;0.10;;;;;;;13.97;100.00;97624.81;4997865;28;20511;-65
2022/10/03 03:06:18;;;;;;;0.20;0.20;;;;;;;13.98;100.00;97625.63;4997031;28;20641;-65
2022/10/03 03:09:28;;;;;;;0.20;0.20;;;;;;;14.00;100.00;97621.38;4988670;28;20148;-67
2022/10/03 03:12:18;;;;;;;0.20;0.20;;;;;;;14.00;100.00;97615.88;4987962;28;20053;-66
2022/10/03 03:15:11;;;;;;;0.13;0.13;;;;;;;13.98;100.00;97614.66;4979213;28;20193;-65
2022/10/03 03:17:49;;;;;;;0.15;0.15;;;;;;;13.99;100.00;97608.00;4971712;28;20057;-65
2022/10/03 03:20:40;;;;;;;0.20;0.20;;;;;;;14.01;100.00;97620.22;5023748;28;20045;-65
2022/10/03 03:23:41;;;;;;;0.10;0.10;;;;;;;14.02;100.00;97616.31;5043041;28;20033;-66
2022/10/03 03:26:26;;;;;;;0.20;0.20;;;;;;;14.04;100.00;97602.25;5031943;28;20106;-67
2022/10/03 03:29:03;;;;;;;0.20;0.20;;;;;;;14.04;100.00;97599.50;5039630;28;20083;-66
2022/10/03 03:31:40;;;;;;;0.20;0.20;;;;;;;14.02;100.00;97588.06;5036104;28;20387;-66
2022/10/03 03:34:17;;;;;;;0.20;0.20;;;;;;;14.02;100.00;97585.31;5042182;28;20045;-66
2022/10/03 03:36:46;;;;;;;;;;;;;;;14.04;100.00;97589.28;5043596;28;20056;-65
2022/10/03 03:39:32;;;;;;;0.20;0.20;;;;;;;14.06;100.00;97596.41;5026901;28;20391;-65
2022/10/03 03:42:21;;;;;;;0.20;0.20;;;;;;;14.07;100.00;97603.50;5027887;28;20136;-63
2022/10/03 03:45:05;;;;;;;0.20;0.20;;;;;;;14.09;100.00;97595.69;5034434;28;20500;-64
2022/10/03 03:47:52;;;;;;;0.20;0.20;;;;;;;14.12;100.00;97593.03;5042945;28;20041;-65
2022/10/03 03:50:44;;;;;;;0.20;0.20;;;;;;;14.14;100.00;97589.94;5045727;28;20124;-65
2022/10/03 03:53:30;;;;;;;0.20;0.20;;;;;;;14.16;100.00;97574.72;5040385;28;20519;-66
2022/10/03 03:56:17;;;;;;;0.20;0.20;;;;;;;14.19;100.00;97573.19;5039127;28;20424;-67
2022/10/03 03:58:54;;;;;;;0.20;0.20;;;;;;;14.23;100.00;97567.78;5028661;28;20076;-66
2022/10/03 04:01:40;;;;;;;0.20;0.20;;;;;;;14.26;100.00;97564.31;5027755;28;20049;-66
2022/10/03 04:04:20;;;;;;;0.20;0.20;;;;;;;14.28;100.00;97560.06;5026006;28;20572;-65
2022/10/03 04:07:00;;;;;;;0.20;0.20;;;;;;;14.32;100.00;97549.19;5027986;28;20048;-66
2022/10/03 04:09:47;;;;;;;0.20;0.20;;;;;;;14.34;100.00;97560.63;5028450;28;20045;-66
2022/10/03 04:12:25;;;;;;;0.20;0.20;;;;;;;14.38;100.00;97545.00;5030539;28;20050;-69
2022/10/03 04:15:08;;;;;;;;;;;;;;;14.41;100.00;97538.00;5036683;28;20419;-66
2022/10/03 04:20:54;;;;;;;0.20;0.20;;;;;;;14.48;100.00;97537.38;5040196;28;20052;-66
2022/10/03 04:23:37;;;;;;;0.20;0.20;;;;;;;14.51;100.00;97525.66;5030638;28;20110;-66
2022/10/03 04:26:18;;;;;;;0.20;0.20;;;;;;;14.53;100.00;97520.59;5039924;28;20140;-66
2022/10/03 04:29:12;;;;;;;0.20;0.20;;;;;;;14.56;100.00;97523.44;5045887;28;20045;-66
2022/10/03 04:31:48;;;;;;;0.20;0.20;;;;;;;14.61;100.00;97517.66;5037594;28;20107;-66
2022/10/03 04:34:32;;;;;;;0.20;0.20;;;;;;;14.65;100.00;97525.19;5032847;28;20490;-66
2022/10/03 04:37:17;;;;;;;0.20;0.20;;;;;;;14.68;100.00;97524.50;5036525;28;20044;-67
2022/10/03 04:39:51;;;;;;;2.00;0.30;;;;;;;14.71;100.00;97513.59;4688022;28;10001966;-68
2022/10/03 04:42:29;;;;;;;0.20;0.20;;;;;;;14.73;100.00;97519.53;5040352;28;20071;-67
2022/10/03 04:45:11;;;;;;;0.20;0.20;;;;;;;14.82;100.00;97513.03;5041322;28;20045;-67
2022/10/03 04:47:47;;;;;;;0.30;0.30;;;;;;;14.89;100.00;97503.00;5041815;28;20708;-65
2022/10/03 04:50:27;;;;;;;0.28;0.28;;;;;;;14.95;100.00;97499.94;5040407;28;20038;-65
2022/10/03 04:53:10;;;;;;;0.30;0.30;;;;;;;14.97;100.00;97492.94;4784322;28;10000552;-66
2022/10/03 04:55:44;;;;;;;0.30;0.30;;;;;;;15.01;99.15;97506.78;5042082;28;20284;-65
2022/10/03 04:58:25;;;;;;;0.20;0.20;;;;;;;15.06;99.02;97491.91;5040503;28;20075;-65
2022/10/03 05:01:05;;;;;;;0.20;0.20;;;;;;;15.08;98.37;97492.38;5042217;28;20055;-66
2022/10/03 05:03:42;;;;;;;0.20;0.20;;;;;;;14.99;98.22;97468.59;5047770;28;20072;-66
2022/10/03 05:06:25;;;;;;;0.20;0.20;;;;;;;15.09;98.24;97477.47;5018915;28;20049;-67
2022/10/03 05:08:58;;;;;;;0.30;0.30;;;;;;;15.30;97.01;97496.38;5042885;28;20049;-66
2022/10/03 05:11:38;;;;;;;0.20;0.20;;;;;;;15.26;96.37;97493.53;5039297;28;20573;-67
2022/10/03 05:14:12;;;;;;;0.20;0.20;;;;;;;15.29;96.08;97486.50;5042546;28;20535;-67
2022/10/03 05:16:45;;;;;;;0.20;0.20;;;;;;;15.22;96.27;97476.16;5043405;28;20045;-64
2022/10/03 05:19:46;;;;;;;0.22;0.22;;;;;;;15.21;96.11;97487.53;5018238;28;20136;-66
2022/10/03 05:22:26;;;;;;;0.20;0.20;;;;;;;15.20;95.92;97472.16;5031349;28;20068;-67
2022/10/03 05:25:01;;;;;;;0.30;0.30;;;;;;;15.19;95.67;97473.34;5033146;28;20049;-68
2022/10/03 05:27:40;;;;;;;0.20;0.20;;;;;;;15.21;95.75;97462.75;5036157;28;20047;-67
2022/10/03 05:30:14;;;;;;;0.20;0.20;;;;;;;15.21;95.92;97460.78;5031861;28;20049;-66
2022/10/03 05:32:47;;;;;;;0.20;0.20;;;;;;;15.23;95.38;97441.16;5034407;28;20415;-67
2022/10/03 05:35:28;;;;;;;0.30;0.30;;;;;;;15.24;94.97;97457.31;5034734;28;20052;-67
2022/10/03 05:38:19;;;;;;;0.30;0.30;;;;;;;15.26;94.62;97437.69;5037712;28;20037;-67
2022/10/03 05:40:59;;;;;;;0.30;0.30;;;;;;;15.29;94.79;97440.50;5042623;28;20120;-66
2022/10/03 05:43:35;;;;;;;0.30;0.30;;;;;;;15.33;94.22;97421.31;5044320;28;20084;-68
2022/10/03 05:46:10;;;;;;;0.28;0.28;;;;;;;15.36;94.06;97414.25;5022863;28;20546;-67
2022/10/03 05:48:46;;;;;;;0.30;0.30;;;;;;;15.32;93.48;97395.72;5040749;28;20037;-67
2022/10/03 05:51:40;;;;;;;0.30;0.30;;;;;;;15.25;93.76;97379.09;5041669;28;20144;-67
2022/10/03 05:54:53;;;;;;;0.20;0.20;;;;;;;15.27;93.37;97396.03;5042822;28;20061;-73
2022/10/03 05:57:41;;;;;;;0.20;0.20;;;;;;;15.27;93.29;97396.03;5031380;28;20045;-67
2022/10/03 06:00:17;;;;;;;0.20;0.20;;;;;;;15.28;93.05;97416.09;5044358;28;20464;-67
2022/10/03 06:03:23;;;;;;;0.30;0.30;;;;;;;15.31;92.78;97409.88;5033397;28;20080;-68
2022/10/03 06:06:02;;;;;;;0.20;0.20;;;;;;;15.29;92.45;97390.97;5027460;28;20416;-67
2022/10/03 06:08:49;;;;;;;0.20;0.20;;;;;;;15.26;92.33;97408.22;5028428;28;20052;-66
2022/10/03 06:11:33;;;;;;;0.20;0.20;;;;;;;15.14;92.19;97364.31;5023401;28;20591;-67
2022/10/03 06:14:27;;;;;;;0.20;0.20;;;;;;;15.23;92.52;97392.44;5029613;28;20065;-68
2022/10/03 06:17:09;;;;;;;0.30;0.30;;;;;;;15.26;92.13;97394.44;5026540;28;20304;-68
2022/10/03 06:19:48;;;;;;;0.30;0.30;;;;;;;15.31;92.03;97374.88;5027597;28;20191;-67
2022/10/03 06:22:59;;;;;;;0.30;0.30;;;;;;;15.35;91.49;97372.19;5008073;28;20045;-67
2022/10/03 06:25:54;;;;;;;0.20;0.20;;;;;;;15.29;91.07;97381.88;5026289;28;20567;-67
2022/10/03 06:28:50;;;;;;;0.20;0.20;;;;;;;15.25;91.05;97392.03;5029146;28;20068;-68
2022/10/03 06:31:57;;;;;;;0.28;0.28;;;;;;;15.23;91.22;97394.38;5039096;28;20053;-67
2022/10/03 06:35:04;;;;;;;0.20;0.20;;;;;;;15.23;90.93;97394.38;5027556;28;20045;-68
2022/10/03 06:38:08;;;;;;;0.20;0.20;;;;;;;15.19;90.41;97385.25;5008570;28;20045;-67
2022/10/03 06:41:01;;;;;;;0.20;0.20;;;;;;;15.20;89.70;97371.13;5030980;28;20055;-67
2022/10/03 06:43:57;;;;;;;0.20;0.20;;;;;;;15.20;88.99;97373.09;5039766;28;20136;-67
2022/10/03 06:47:01;;;;;;;0.30;0.30;;;;;;;15.21;88.82;97372.69;5024693;28;20053;-66
2022/10/03 06:49:41;;;;;;;0.20;0.20;;;;;;;15.21;88.73;97393.94;5019049;28;20110;-66
2022/10/03 06:52:52;;;;;;;0.30;0.30;;;;;;;15.20;88.51;97382.13;5008476;28;20563;-67
2022/10/03 06:55:45;;;;;;;0.20;0.20;;;;;;;15.20;88.63;97384.09;5016919;28;20057;-66
2022/10/03 06:59:04;;;;;;;0.30;0.30;;;;;;;15.15;88.19;97386.00;5032251;28;20049;-66
2022/10/03 07:02:00;;;;;;;0.30;0.30;;;;;;;15.14;87.83;97395.41;5039295;28;20060;-64
2022/10/03 07:04:57;;;;;;;0.20;0.20;;;;;;;15.02;88.51;97401.84;5019423;28;20140;-65
2022/10/03 07:08:07;;;;;;;0.30;0.30;;;;;;;14.88;89.91;97401.56;5010964;28;20069;-65
2022/10/03 07:10:51;;;;;;;0.20;0.20;;;;;;;14.68;91.49;97401.53;5041970;28;20080;-65
2022/10/03 07:13:52;;;;;;;0.30;0.30;;;;;;;14.49;93.25;97390.50;5042407;28;20049;-65
2022/10/03 07:16:53;;;;;;;0.20;0.20;;;;;;;14.33;94.39;97394.88;5000092;28;20488;-65
2022/10/03 07:19:55;;;;;;;0.20;0.20;;;;;;;14.31;95.33;97404.66;5044920;28;20431;-65
2022/10/03 07:22:43;;;;;;;0.20;0.20;;;;;;;14.33;94.87;97396.84;4961816;28;20046;-66
2022/10/03 07:25:28;;;;;;;0.30;0.30;;;;;;;14.36;94.99;97403.56;4955451;28;20554;-64
2022/10/03 07:28:19;;;;;;;0.20;0.20;;;;;;;14.40;94.50;97396.22;5046077;28;20086;-65
2022/10/03 07:31:00;;;;;;;0.30;0.30;;;;;;;14.44;94.08;97403.41;5038535;28;20045;-66
2022/10/03 07:34:09;;;;;;;0.30;0.30;;;;;;;14.46;93.30;97392.03;5036500;28;20041;-66
2022/10/03 07:40:13;;;;;;;0.30;0.30;;;;;;;14.53;92.42;97400.44;5031216;28;20065;-65
2022/10/03 07:43:27;;;;;;;0.20;0.20;;;;;;;14.56;92.46;97412.66;5041983;28;20037;-65
2022/10/03 07:46:31;;;;;;;0.20;0.20;;;;;;;14.55;92.24;97403.63;4998810;28;20546;-65
2022/10/03 07:49:18;;;;;;;0.22;0.22;;;;;;;14.53;92.21;97394.94;5041194;28;20475;-64
2022/10/03 07:52:06;;;;;;;0.20;0.20;;;;;;;14.44;92.25;97400.66;5040781;28;20060;-65
2022/10/03 07:54:52;;;;;;;0.30;0.30;;;;;;;14.24;92.79;97374.25;5035397;28;20050;-64
2022/10/03 07:57:51;;;;;;;0.45;0.30;;;;;;;14.37;93.17;97394.19;5039679;28;20095;-65
2022/10/03 08:00:23;;;;;;;0.30;0.30;;;;;;;14.26;94.24;97397.50;5031911;28;20391;-65
2022/10/03 08:03:24;;;;;;;0.20;0.20;;;;;;;14.14;95.53;97406.66;5036831;28;20049;-65
2022/10/03 08:06:12;;;;;;;0.30;0.30;;;;;;;13.99;96.63;97394.50;5016836;28;20054;-65
2022/10/03 08:09:06;;;;;;;0.30;0.30;;;;;;;13.92;97.47;97410.84;5038908;28;20068;-64
2022/10/03 08:11:53;;;;;;;0.25;0.25;;;;;;;13.90;97.94;97404.91;5026424;28;20059;-65
2022/10/03 08:14:31;;;;;;;0.20;0.20;;;;;;;13.86;98.22;97396.56;5038305;28;20045;-64
2022/10/03 08:17:15;;;;;;;0.20;0.20;;;;;;;13.93;97.80;97389.63;5035900;28;20124;-65
2022/10/03 08:20:05;;;;;;;0.20;0.20;;;;;;;14.03;97.38;97391.84;5039315;28;20115;-64
2022/10/03 08:22:47;;;;;;;0.20;0.20;;;;;;;14.16;96.56;97398.84;5039061;28;20078;-64
2022/10/03 08:25:28;;;;;;;0.20;0.20;;;;;;;14.38;96.14;97395.78;5045593;28;20056;-66
2022/10/03 08:28:20;;;;;;;0.32;0.30;;;;;;;14.54;94.48;97398.47;5044714;28;20041;-65
2022/10/03 08:31:04;;;;;;;0.30;0.30;;;;;;;14.63;93.16;97406.50;5044462;28;20060;-65
2022/10/03 08:33:56;;;;;;;0.30;0.30;;;;;;;14.65;92.71;97415.19;5044389;28;20489;-65
2022/10/03 08:37:02;;;;;;;0.45;0.30;;;;;;;14.71;92.21;97424.78;5045555;28;20132;-64
2022/10/03 08:39:56;;;;;;;0.20;0.20;;;;;;;14.72;91.13;97424.41;5038285;28;20049;-65
2022/10/03 08:42:49;;;;;;;0.20;0.20;;;;;;;14.70;90.72;97420.44;5044262;28;20079;-65
2022/10/03 08:45:40;;;;;;;0.20;0.20;;;;;;;14.66;90.90;97425.84;5037639;28;20126;-65
2022/10/03 08:48:41;;;;;;;0.20;0.20;;;;;;;14.63;90.56;97410.06;5040979;28;20110;-63
2022/10/03 08:51:46;;;;;;;0.30;0.30;;;;;;;14.61;90.69;97421.41;5045766;28;20049;-67
2022/10/03 08:54:41;;;;;;;0.20;0.20;;;;;;;14.60;90.67;97424.53;5012349;28;20103;-65
2022/10/03 08:57:31;;;;;;;0.30;0.30;;;;;;;14.64;91.30;97422.66;5039756;28;20048;-65
2022/10/03 09:00:14;;;;;;;0.30;0.30;;;;;;;14.64;90.84;97439.16;5032297;28;20045;-66
2022/10/03 09:03:15;;;;;;;0.25;0.25;;;;;;;14.71;90.56;97433.84;5046488;28;20520;-66
2022/10/03 09:06:26;;;;;;;0.20;0.20;;;;;;;14.70;90.07;97439.69;5041663;28;20053;-65
2022/10/03 09:09:34;;;;;;;0.30;0.30;;;;;;;14.59;90.38;97437.47;5046475;28;20049;-65
2022/10/03 09:12:44;;;;;;;0.20;0.20;;;;;;;14.45;91.18;97426.97;5035270;28;20064;-66
2022/10/03 09:15:40;;;;;;;0.28;0.28;;;;;;;14.33;92.43;97427.09;5041019;28;20049;-65
2022/10/03 09:18:44;;;;;;;0.30;0.30;;;;;;;14.16;93.07;97445.56;5043131;28;20360;-65
2022/10/03 09:21:39;;;;;;;0.20;0.20;;;;;;;13.91;95.76;97439.47;5043530;28;20044;-65
2022/10/03 09:24:30;;;;;;;0.25;0.25;;;;;;;13.43;97.55;97406.44;5044264;28;20056;-65
2022/10/03 09:27:21;;;;;;;0.28;0.20;;;;;;;13.51;99.85;97456.84;5024816;28;20045;-65
2022/10/03 09:30:11;;;;;;;0.30;0.30;;;;;;;13.52;100.00;97458.44;5039185;28;20096;-64
2022/10/03 09:33:05;;;;;;;0.20;0.20;;;;;;;13.57;100.00;97461.75;5042525;28;20036;-66
2022/10/03 09:36:03;;;;;;;0.30;0.30;;;;;;;13.82;100.00;97456.13;5035537;28;20060;-66
2022/10/03 09:38:48;;;;;;;0.30;0.30;;;;;;;14.01;100.00;97465.59;5007353;28;20538;-66
2022/10/03 09:41:42;;;;;;;0.30;0.30;;;;;;;13.88;100.00;97467.59;5040104;28;20044;-66
2022/10/03 09:44:38;;;;;;;0.30;0.30;;;;;;;13.75;100.00;97467.72;5036532;28;20045;-66
2022/10/03 09:47:54;;;;;;;0.20;0.20;;;;;;;13.65;100.00;97479.19;5034812;28;20379;-66
2022/10/03 09:51:05;;;;;;;0.20;0.20;;;;;;;13.51;100.00;97476.06;5031457;28;20045;-66
2022/10/03 09:54:12;;;;;;;0.20;0.20;;;;;;;13.34;100.00;97466.97;5008852;28;20104;-66
2022/10/03 09:57:13;;;;;;;0.20;0.20;;;;;;;13.34;100.00;97475.22;5037929;28;20094;-65
2022/10/03 10:00:12;;;;;;;0.20;0.20;;;;;;;13.32;100.00;97458.31;5043242;28;20591;-66
2022/10/03 10:03:13;;;;;;;0.20;0.20;;;;;;;13.39;100.00;97479.66;5038072;28;20065;-66
2022/10/03 10:06:13;;;;;;;0.30;0.30;;;;;;;13.53;100.00;97490.25;5034703;28;20041;-66
2022/10/03 10:09:19;;;;;;;0.20;0.20;;;;;;;13.64;100.00;97488.59;5033958;28;20509;-66
2022/10/03 10:12:17;;;;;;;0.30;0.30;;;;;;;13.66;100.00;97490.97;5043301;28;20049;-66
2022/10/03 10:15:06;;;;;;;0.20;0.20;;;;;;;13.63;100.00;97489.75;4999213;28;20577;-66
2022/10/03 10:18:04;;;;;;;0.20;0.20;;;;;;;13.59;100.00;97492.38;5043302;28;20060;-66
2022/10/03 10:20:50;;;;;;;0.22;0.22;;;;;;;13.62;100.00;97496.38;5037324;28;20521;-66
2022/10/03 10:23:36;;;;;;;0.20;0.20;;;;;;;13.60;100.00;97512.41;5039273;28;20508;-65
2022/10/03 10:26:45;;;;;;;0.20;0.20;;;;;;;13.55;100.00;97562.88;5020519;28;20041;-66
2022/10/03 10:29:43;;;;;;;0.20;0.20;;;;;;;13.01;98.69;97544.81;5039473;28;20049;-66
2022/10/03 10:32:49;;;;;;;0.20;0.20;;;;;;;12.39;99.86;97577.75;5005794;28;20110;-66
2022/10/03 10:35:40;;;;;;;1.70;0.80;;;;;;;12.01;100.00;97565.91;5034980;28;20056;-67
2022/10/03 10:38:25;;;;;;;0.20;0.20;;;;;;;11.67;100.00;97568.66;5036115;28;20045;-67
2022/10/03 10:41:33;;;;;;;0.30;0.30;;;;;;;11.66;100.00;97564.31;5036495;28;20519;-67
2022/10/03 10:44:30;;;;;;;0.30;0.30;;;;;;;12.32;100.00;97559.91;5035853;28;20069;-67
2022/10/03 10:47:29;;;;;;;;;;;;;;;12.41;100.00;97564.50;5035760;28;20511;-67
2022/10/03 10:50:24;;;;;;;0.40;0.40;;;;;;;12.53;100.00;97564.53;4994020;28;19965;-66
2022/10/03 10:53:26;;;;;;;0.30;0.30;;;;;;;12.63;99.13;97575.00;4968380;28;20050;-66
2022/10/03 10:56:42;;;;;;;0.82;0.82;;;;;;;12.95;97.27;97585.41;4981054;28;20065;-66
2022/10/03 10:59:53;;;;;;;0.30;0.30;;;;;;;13.14;92.11;97582.06;4955166;28;20511;-66
2022/10/03 11:02:57;;;;;;;0.70;0.70;;;;;;;13.84;90.05;97585.63;5000261;28;20066;-66
2022/10/03 11:06:10;;;;;;;0.30;0.30;;;;;;;13.45;85.15;97588.06;4998849;28;20133;-66
2022/10/03 11:09:23;;;;;;;0.20;0.20;;;;;;;12.96;86.22;97603.47;4979588;28;20549;-66
2022/10/03 11:12:38;;;;;;;0.20;0.20;;;;;;;12.54;87.88;97640.13;4998528;28;20058;-66
2022/10/03 11:15:42;;;;;;;0.20;0.20;;;;;;;12.42;87.97;97631.88;4987500;28;20145;-66
2022/10/03 11:18:43;;;;;;;0.13;0.13;;;;;;;12.28;89.85;97651.38;4987618;28;20625;-66
2022/10/03 11:21:37;;;;;;;0.20;0.20;;;;;;;12.26;88.94;97634.50;5030476;28;20068;-66
2022/10/03 11:24:38;;;;;;;0.20;0.20;;;;;;;12.16;87.76;97694.03;5043823;28;20060;-66
2022/10/03 11:27:50;;;;;;;0.20;0.20;;;;;;;11.88;87.29;97678.13;5044534;28;20049;-66
2022/10/03 11:30:28;;;;;;;0.20;0.20;;;;;;;11.87;86.95;97690.22;5037627;28;20268;-66
2022/10/03 11:33:44;;;;;;;0.20;0.20;;;;;;;11.98;86.82;97704.31;5040568;28;20168;-65
2022/10/03 11:36:57;;;;;;;0.20;0.20;;;;;;;11.98;85.36;97684.34;5026755;28;20063;-66
2022/10/03 11:39:35;;;;;;;0.85;0.85;;;;;;;12.79;83.16;97664.03;5009547;28;20099;-67
2022/10/03 11:42:10;;;;;;;1.40;1.30;;;;;;;15.29;73.32;97673.69;5033995;28;20057;-66
2022/10/03 11:44:43;;;;;;;1.40;1.30;;;;;;;16.93;63.58;97688.72;5034475;28;20137;-66
2022/10/03 11:47:44;;;;;;;1.42;1.33;;;;;;;17.74;58.51;97692.34;5033764;28;20488;-66
2022/10/03 11:50:26;;;;;;;1.50;1.40;;;;;;;18.46;58.37;97689.66;5029392;28;20511;-66
2022/10/03 11:53:07;;;;;;;1.08;1.05;;;;;;;17.84;56.76;97741.41;5036484;28;20095;-66
2022/10/03 11:55:40;;;;;;;1.17;0.70;;;;;;;16.36;59.36;97725.16;5041914;28;20514;-66
2022/10/03 11:58:30;;;;;;;0.40;0.40;;;;;;;16.23;59.33;97711.50;5038548;28;20056;-66
2022/10/03 12:01:11;;;;;;;1.40;1.30;;;;;;;16.68;57.20;97730.47;5042358;28;20143;-66
2022/10/03 12:03:48;;;;;;;0.57;0.57;;;;;;;18.21;52.82;97719.81;5045914;28;20217;-66
2022/10/03 12:09:18;;;;;;;0.28;0.28;;;;;;;17.13;51.05;97728.13;5041422;28;20053;-68
2022/10/03 12:11:54;;;;;;;0.20;0.20;;;;;;;15.19;56.07;97756.81;5044596;28;20049;-66
2022/10/03 12:14:27;;;;;;;0.20;0.20;;;;;;;14.00;60.67;97733.22;5045314;28;20049;-65
2022/10/03 12:17:13;;;;;;;0.20;0.20;;;;;;;13.55;63.24;97790.75;5045280;28;20083;-65
2022/10/03 12:19:53;;;;;;;0.32;0.32;;;;;;;13.48;62.42;97768.53;5042728;28;20049;-66
2022/10/03 12:22:32;;;;;;;0.30;0.30;;;;;;;13.96;61.68;97765.28;5044841;28;20428;-65
2022/10/03 12:25:15;;;;;;;0.20;0.20;;;;;;;13.53;62.35;97775.75;5043787;28;20045;-65
2022/10/03 12:27:49;;;;;;;0.30;0.30;;;;;;;13.04;65.33;97810.22;5036138;28;20485;-65
2022/10/03 12:30:18;;;;;;;0.17;0.17;;;;;;;12.75;65.55;97782.63;5038829;28;20190;-66
2022/10/03 12:33:01;;;;;;;0.20;0.20;;;;;;;12.52;66.00;97797.81;5039368;28;20144;-66
2022/10/03 12:35:38;;;;;;;0.20;0.20;;;;;;;12.41;66.34;97811.16;5042185;28;20334;-65
2022/10/03 12:38:21;;;;;;;0.20;0.20;;;;;;;12.25;67.27;97828.19;5038317;28;20091;-66
2022/10/03 12:40:59;;;;;;;0.20;0.20;;;;;;;11.97;70.36;97836.91;5024064;28;20068;-65
2022/10/03 12:43:40;;;;;;;1.30;1.20;;;;;;;12.85;71.14;97847.19;5040329;28;20400;-65
2022/10/03 12:46:14;;;;;;;1.33;1.20;;;;;;;15.08;61.57;97839.91;5041544;28;20534;-65
2022/10/03 12:48:48;;;;;;;0.30;0.30;;;;;;;15.59;55.09;97846.69;5034470;28;20044;-65
2022/10/03 12:51:38;;;;;;;0.20;0.20;;;;;;;13.71;60.20;97853.22;5039112;28;20045;-65
2022/10/03 12:54:17;;;;;;;0.20;0.20;;;;;;;12.46;64.46;97880.28;5019672;28;20296;-65
2022/10/03 12:56:47;;;;;;;0.20;0.20;;;;;;;11.89;67.53;97885.09;5029743;28;20059;-65
2022/10/03 12:59:27;;;;;;;0.20;0.20;;;;;;;11.61;68.56;97888.28;5041754;28;20251;-65
2022/10/03 13:02:24;;;;;;;0.10;0.10;;;;;;;11.46;66.85;97908.81;5040937;28;20041;-64
2022/10/03 13:04:57;;;;;;;;;;;;;;;11.47;67.69;97921.34;5039330;28;20045;-64
2022/10/03 13:07:28;;;;;;;0.38;0.38;;;;;;;11.69;66.29;97935.13;5045926;28;19986;-65
2022/10/03 13:10:24;;;;;;;0.20;0.20;;;;;;;12.04;64.34;97910.34;5043114;28;20132;-65
2022/10/03 13:12:59;;;;;;;0.20;0.20;;;;;;;11.73;62.88;97912.25;5028242;28;20037;-66
2022/10/03 13:15:45;;;;;;;0.20;0.20;;;;;;;11.31;62.77;97934.75;5035973;28;20548;-65
2022/10/03 13:18:34;;;;;;;0.10;0.10;;;;;;;11.06;63.29;97937.22;5046095;28;20417;-66
2022/10/03 13:21:08;;;;;;;0.10;0.10;;;;;;;11.03;62.89;97943.34;5044417;28;20097;-66
2022/10/03 13:23:46;;;;;;;0.10;0.10;;;;;;;10.94;63.48;97960.88;5044889;28;20072;-65